Time;durP1;ratioP1;P1;durP2;ratioP2;P2;SDS_P1;SDS_P2;PMS_P1;PMS_P2;Temp;Humidity;BMP_temperature;BMP_pressure;BME280_temperature;BME280_humidity;BME280_pressure;Samples;Min_cycle;Max_cycle;Signal;HPM_P1;HPM_P2
2022/07/04 00:01:09;;;;;;;0.65;0.50;;;24.80;47.60;23.90;101531.00;;;;5027912;28;20059;-66
2022/07/04 00:03:55;;;;;;;0.50;0.50;;;24.70;47.60;23.90;101533.00;;;;5019174;28;20037;-65
2022/07/04 00:06:41;;;;;;;0.85;0.60;;;24.70;47.70;23.90;101529.00;;;;5024088;28;20545;-66
2022/07/04 00:09:27;;;;;;;0.50;0.50;;;24.70;47.70;23.90;101539.00;;;;5018538;28;20053;-66
2022/07/04 00:12:13;;;;;;;0.45;0.32;;;24.70;48.40;23.90;101541.00;;;;5040263;28;20032;-65
2022/07/04 00:15:00;;;;;;;0.75;0.40;;;24.70;47.60;23.90;101539.00;;;;5022215;28;20061;-66
2022/07/04 00:17:46;;;;;;;0.40;0.40;;;24.70;47.60;23.90;101540.00;;;;5022887;28;20033;-65
2022/07/04 00:20:32;;;;;;;1.30;0.70;;;24.60;47.50;23.90;101535.00;;;;5025513;28;20368;-66
2022/07/04 00:23:18;;;;;;;1.10;0.40;;;24.70;47.40;23.90;101538.00;;;;5021952;28;20351;-65
2022/07/04 00:26:04;;;;;;;0.95;0.60;;;24.60;47.40;23.80;101530.00;;;;5029902;28;20406;-66
2022/07/04 00:28:51;;;;;;;0.98;0.70;;;24.70;47.40;23.80;101533.00;;;;5016434;28;20467;-66
2022/07/04 00:31:37;;;;;;;0.47;0.47;;;24.70;47.40;23.80;101544.00;;;;5030194;28;20040;-66
2022/07/04 00:34:23;;;;;;;0.60;0.35;;;24.70;47.40;23.80;101542.00;;;;5020390;28;20048;-66
2022/07/04 00:37:09;;;;;;;0.85;0.60;;;24.70;47.40;23.80;101533.00;;;;5022270;28;20049;-65
2022/07/04 00:39:55;;;;;;;1.17;0.57;;;24.60;47.40;23.80;101537.00;;;;5023104;28;20041;-66
2022/07/04 00:42:41;;;;;;;0.43;0.43;;;24.60;47.50;23.80;101535.00;;;;5022763;28;20046;-66
2022/07/04 00:45:27;;;;;;;0.70;0.60;;;24.60;47.50;23.80;101535.00;;;;5028055;28;20055;-65
2022/07/04 00:48:15;;;;;;;0.50;0.45;;;24.60;47.50;23.80;101540.00;;;;5026009;28;20372;-66
2022/07/04 00:51:01;;;;;;;1.05;0.40;;;24.60;47.50;23.80;101534.00;;;;5028596;28;20119;-66
2022/07/04 00:53:47;;;;;;;0.77;0.57;;;24.60;47.60;23.80;101538.00;;;;5026127;28;20033;-66
2022/07/04 00:56:36;;;;;;;1.38;0.60;;;24.60;47.70;23.80;101538.00;;;;5026402;28;20468;-66
2022/07/04 00:59:22;;;;;;;0.70;0.50;;;24.60;47.70;23.80;101532.00;;;;5026230;28;20494;-66
2022/07/04 01:02:08;;;;;;;0.80;0.60;;;24.60;47.50;23.80;101526.00;;;;5023020;28;20045;-66
2022/07/04 01:04:54;;;;;;;1.10;0.47;;;24.60;47.50;23.80;101534.00;;;;5023838;28;20036;-65
2022/07/04 01:07:40;;;;;;;0.73;0.43;;;24.60;47.50;23.80;101537.00;;;;5023212;28;20029;-65
2022/07/04 01:10:26;;;;;;;0.40;0.40;;;24.60;47.50;23.70;101535.00;;;;5022082;28;20479;-65
2022/07/04 01:13:42;;;;;;;1.33;0.50;;;24.60;47.60;23.70;101530.00;;;;5025953;28;20049;-65
2022/07/04 01:16:28;;;;;;;0.85;0.55;;;24.60;47.60;23.70;101533.00;;;;5038769;28;20127;-66
2022/07/04 01:19:14;;;;;;;0.50;0.38;;;24.60;47.60;23.70;101536.00;;;;5025934;28;20096;-65
2022/07/04 01:22:06;;;;;;;0.52;0.40;;;24.60;47.50;23.70;101529.00;;;;5026373;28;20050;-66
2022/07/04 01:24:52;;;;;;;0.47;0.40;;;24.50;47.50;23.70;101525.00;;;;5020054;28;20033;-65
2022/07/04 01:27:38;;;;;;;0.30;0.30;;;24.60;47.60;23.70;101522.00;;;;5026437;28;20044;-66
2022/07/04 01:30:24;;;;;;;0.60;0.52;;;24.60;47.60;23.70;101529.00;;;;5017466;28;20051;-65
2022/07/04 01:33:10;;;;;;;0.38;0.38;;;24.50;47.60;23.70;101524.00;;;;5022147;28;20048;-66
2022/07/04 01:35:56;;;;;;;0.50;0.50;;;24.50;47.70;23.70;101534.00;;;;5023811;28;20052;-65
2022/07/04 01:38:42;;;;;;;0.57;0.55;;;24.50;47.60;23.70;101528.00;;;;5021006;28;20140;-65
2022/07/04 01:41:34;;;;;;;0.50;0.40;;;24.50;47.60;23.60;101529.00;;;;5021106;28;20112;-66
2022/07/04 01:44:20;;;;;;;0.60;0.57;;;24.40;47.60;23.70;101525.00;;;;5024923;28;20045;-66
2022/07/04 01:47:06;;;;;;;0.68;0.52;;;24.50;47.60;23.60;101537.00;;;;5025210;28;20504;-66
2022/07/04 01:49:52;;;;;;;1.17;0.75;;;24.50;47.50;23.60;101530.00;;;;5020831;28;20185;-65
2022/07/04 01:52:41;;;;;;;0.82;0.40;;;24.50;47.50;23.60;101531.00;;;;5022014;28;20045;-65
2022/07/04 01:55:28;;;;;;;1.02;0.45;;;24.50;47.40;23.60;101532.00;;;;5020322;28;20077;-66
2022/07/04 01:58:14;;;;;;;0.80;0.45;;;24.40;47.40;23.60;101525.00;;;;5020310;28;20042;-66
2022/07/04 02:04:06;;;;;;;0.50;0.35;;;24.40;47.40;23.60;101532.00;;;;5009207;28;20431;-66
2022/07/04 02:06:52;;;;;;;0.32;0.22;;;24.40;47.40;23.60;101527.00;;;;5024609;28;20073;-65
2022/07/04 02:09:38;;;;;;;0.40;0.40;;;24.40;47.40;23.60;101529.00;;;;5023486;28;20250;-66
2022/07/04 02:15:38;;;;;;;0.40;0.40;;;24.40;47.40;23.50;101523.00;;;;5020827;28;20041;-65
2022/07/04 02:18:24;;;;;;;0.60;0.40;;;24.30;47.30;23.50;101526.00;;;;5018666;28;20041;-65
2022/07/04 02:21:10;;;;;;;0.40;0.40;;;24.20;47.20;23.50;101515.00;;;;5028510;28;20037;-66
2022/07/04 02:23:56;;;;;;;0.85;0.45;;;24.30;47.30;23.50;101525.00;;;;5021887;28;20053;-66
2022/07/04 02:26:43;;;;;;;0.32;0.30;;;24.30;47.30;23.50;101525.00;;;;5023806;28;20100;-66
2022/07/04 02:29:29;;;;;;;1.20;0.50;;;24.30;47.30;23.50;101525.00;;;;5020656;28;20176;-66
2022/07/04 02:32:15;;;;;;;0.35;0.35;;;24.40;47.40;23.50;101518.00;;;;5016607;28;20507;-65
2022/07/04 02:35:01;;;;;;;0.32;0.32;;;24.30;47.30;23.50;101528.00;;;;5020103;28;20091;-66
2022/07/04 02:37:47;;;;;;;1.65;0.50;;;24.30;47.40;23.50;101523.00;;;;5018339;28;20076;-66
2022/07/04 02:40:33;;;;;;;0.47;0.40;;;24.20;47.20;23.50;101523.00;;;;5019680;28;20038;-66
2022/07/04 02:43:19;;;;;;;0.45;0.45;;;24.30;47.30;23.50;101529.00;;;;5021728;28;20442;-66
2022/07/04 02:46:05;;;;;;;0.40;0.40;;;24.30;47.30;23.50;101531.00;;;;5025388;28;20136;-65
2022/07/04 02:48:51;;;;;;;0.52;0.50;;;24.20;47.20;23.40;101533.00;;;;5025391;28;20048;-66
2022/07/04 02:51:37;;;;;;;0.40;0.32;;;24.20;47.20;23.40;101541.00;;;;5015520;28;20372;-67
2022/07/04 02:54:24;;;;;;;0.40;0.40;;;24.20;47.20;23.40;101540.00;;;;5018669;28;20037;-67
2022/07/04 02:57:10;;;;;;;0.98;0.40;;;24.20;47.20;23.40;101539.00;;;;5030870;28;20533;-67
2022/07/04 02:59:56;;;;;;;1.15;0.68;;;24.20;47.90;23.40;101544.00;;;;5023827;28;20046;-67
2022/07/04 03:02:42;;;;;;;0.60;0.50;;;24.20;47.20;23.40;101542.00;;;;5027350;28;20045;-68
2022/07/04 03:05:31;;;;;;;0.75;0.50;;;24.20;47.20;23.40;101550.00;;;;5014718;28;20030;-67
2022/07/04 03:08:17;;;;;;;1.02;0.60;;;24.20;47.20;23.40;101552.00;;;;5024229;28;20045;-67
2022/07/04 03:11:03;;;;;;;0.90;0.50;;;24.20;47.20;23.40;101555.00;;;;5024192;28;20042;-67
2022/07/04 03:13:49;;;;;;;0.50;0.50;;;24.20;47.20;23.40;101554.00;;;;5026348;28;20116;-68
2022/07/04 03:16:35;;;;;;;0.55;0.55;;;24.20;47.20;23.40;101554.00;;;;5029371;28;20512;-68
2022/07/04 03:19:21;;;;;;;0.50;0.50;;;24.20;47.20;23.40;101558.00;;;;5026693;28;20052;-68
2022/07/04 03:22:07;;;;;;;0.43;0.38;;;24.20;47.10;23.30;101563.00;;;;5023483;28;20046;-68
2022/07/04 03:24:54;;;;;;;0.82;0.60;;;24.10;47.10;23.30;101574.00;;;;5027090;28;20550;-68
2022/07/04 03:27:40;;;;;;;0.30;0.30;;;24.20;47.10;23.30;101569.00;;;;5024825;28;20050;-68
2022/07/04 03:30:26;;;;;;;0.60;0.40;;;24.20;47.10;23.30;101574.00;;;;5018397;28;20042;-68
2022/07/04 03:33:12;;;;;;;0.98;0.50;;;24.10;47.10;23.30;101582.00;;;;5039245;28;20049;-68
2022/07/04 03:35:58;;;;;;;1.05;0.60;;;24.10;47.00;23.30;101584.00;;;;5023893;28;20060;-68
2022/07/04 03:38:45;;;;;;;0.55;0.50;;;24.10;47.00;23.30;101585.00;;;;5024219;28;20045;-68
2022/07/04 03:41:31;;;;;;;0.63;0.43;;;24.10;47.00;23.30;101580.00;;;;5038923;28;20061;-68
2022/07/04 03:44:17;;;;;;;1.35;0.35;;;24.10;47.00;23.30;101574.00;;;;5021335;28;20069;-68
2022/07/04 03:47:03;;;;;;;0.90;0.40;;;24.10;47.00;23.30;101580.00;;;;5030940;28;20450;-68
2022/07/04 03:49:49;;;;;;;0.45;0.45;;;24.10;47.00;23.30;101588.00;;;;5028964;28;20049;-68
2022/07/04 03:52:35;;;;;;;0.50;0.50;;;24.10;47.00;23.30;101591.00;;;;5018584;28;20049;-68
2022/07/04 03:55:21;;;;;;;0.60;0.60;;;24.10;46.90;23.30;101595.00;;;;5026179;28;20045;-68
2022/07/04 03:58:07;;;;;;;0.80;0.60;;;24.10;46.90;23.30;101605.00;;;;5028059;28;20049;-68
2022/07/04 04:00:53;;;;;;;0.65;0.60;;;24.10;46.90;23.30;101598.00;;;;5027667;28;20048;-69
2022/07/04 04:06:44;;;;;;;1.58;0.50;;;24.00;46.80;23.30;101601.00;;;;5027501;28;20037;-68
2022/07/04 04:09:30;;;;;;;0.88;0.52;;;24.10;46.90;23.30;101603.00;;;;5022864;28;20092;-68
2022/07/04 04:12:16;;;;;;;0.50;0.50;;;24.10;46.90;23.30;101606.00;;;;5045975;28;20041;-68
2022/07/04 04:15:03;;;;;;;0.95;0.60;;;24.00;46.90;23.20;101615.00;;;;5023115;28;20420;-68
2022/07/04 04:17:49;;;;;;;1.90;0.68;;;24.00;46.90;23.20;101617.00;;;;5027323;28;20034;-67
2022/07/04 04:20:35;;;;;;;0.52;0.50;;;24.10;46.90;23.20;101614.00;;;;5013734;28;20033;-68
2022/07/04 04:23:21;;;;;;;0.82;0.70;;;24.00;46.80;23.20;101615.00;;;;5023826;28;20475;-68
2022/07/04 04:26:07;;;;;;;0.80;0.60;;;24.10;46.90;23.20;101617.00;;;;5026657;28;20223;-68
2022/07/04 04:28:53;;;;;;;0.50;0.50;;;24.00;46.80;23.20;101613.00;;;;5019840;28;20033;-68
2022/07/04 04:31:39;;;;;;;1.30;0.63;;;24.10;46.90;23.20;101612.00;;;;5027663;28;20046;-68
2022/07/04 04:34:25;;;;;;;1.33;0.50;;;24.10;46.90;23.20;101617.00;;;;5019007;28;20037;-67
2022/07/04 04:37:11;;;;;;;0.70;0.63;;;24.00;46.90;23.20;101626.00;;;;5026065;28;20434;-68
2022/07/04 04:39:57;;;;;;;0.55;0.55;;;24.00;46.90;23.20;101630.00;;;;5023117;28;20560;-69
2022/07/04 04:42:43;;;;;;;0.55;0.52;;;24.10;46.90;23.20;101623.00;;;;5024468;28;20049;-68
2022/07/04 04:45:29;;;;;;;2.47;0.60;;;24.10;46.90;23.20;101623.00;;;;5024875;28;20087;-68
2022/07/04 04:48:15;;;;;;;0.57;0.57;;;24.00;46.70;23.20;101631.00;;;;5023408;28;20537;-67
2022/07/04 04:51:02;;;;;;;0.73;0.57;;;24.00;46.70;23.20;101629.00;;;;5025179;28;20048;-67
2022/07/04 04:53:48;;;;;;;2.00;0.88;;;24.00;46.80;23.20;101628.00;;;;5024493;28;20404;-68
2022/07/04 04:56:34;;;;;;;0.63;0.40;;;24.00;46.70;23.20;101624.00;;;;5043111;28;20064;-67
2022/07/04 04:59:20;;;;;;;1.48;0.50;;;24.00;46.80;23.20;101621.00;;;;5022051;28;20368;-68
2022/07/04 05:02:06;;;;;;;0.43;0.40;;;24.00;46.70;23.20;101622.00;;;;5027249;28;20038;-68
2022/07/04 05:04:52;;;;;;;0.52;0.50;;;24.00;46.70;23.20;101629.00;;;;5018513;28;20030;-68
2022/07/04 05:07:38;;;;;;;2.05;0.70;;;24.00;47.40;23.20;101631.00;;;;5021181;28;20037;-67
2022/07/04 05:10:24;;;;;;;0.55;0.55;;;24.10;46.80;23.20;101624.00;;;;5021998;28;20060;-67
2022/07/04 05:13:10;;;;;;;0.98;0.60;;;24.00;46.70;23.20;101627.00;;;;5026787;28;20041;-67
2022/07/04 05:15:57;;;;;;;1.58;0.52;;;24.10;46.80;23.20;101633.00;;;;5018063;28;20072;-67
2022/07/04 05:18:43;;;;;;;0.60;0.47;;;24.00;46.70;23.20;101627.00;;;;5024371;28;20041;-68
2022/07/04 05:21:29;;;;;;;1.13;0.70;;;24.10;46.80;23.20;101639.00;;;;5024415;28;20041;-67
2022/07/04 05:24:16;;;;;;;0.98;0.70;;;24.10;46.80;23.20;101633.00;;;;5030243;28;20091;-67
2022/07/04 05:27:02;;;;;;;0.70;0.70;;;24.10;46.90;23.20;101635.00;;;;5022240;28;20040;-67
2022/07/04 05:29:48;;;;;;;1.38;0.88;;;24.10;46.90;23.20;101635.00;;;;5019672;28;20529;-67
2022/07/04 05:32:34;;;;;;;1.00;0.90;;;24.10;46.90;23.20;101638.00;;;;5021764;28;20044;-68
2022/07/04 05:35:20;;;;;;;0.75;0.70;;;24.10;47.00;23.20;101638.00;;;;5032906;28;20042;-67
2022/07/04 05:38:06;;;;;;;0.82;0.82;;;24.10;47.00;23.20;101641.00;;;;5018974;28;20045;-67
2022/07/04 05:40:52;;;;;;;1.30;0.90;;;24.10;47.00;23.20;101650.00;;;;5020693;28;20081;-67
2022/07/04 05:43:39;;;;;;;2.03;0.93;;;24.10;47.00;23.30;101636.00;;;;5022633;28;20561;-67
2022/07/04 05:46:25;;;;;;;1.10;0.88;;;24.20;47.10;23.20;101628.00;;;;5021355;28;20033;-67
2022/07/04 05:49:11;;;;;;;1.08;0.90;;;24.10;47.10;23.30;101626.00;;;;5020215;28;20484;-67
2022/07/04 05:51:58;;;;;;;0.52;0.52;;;24.10;47.20;23.30;101627.00;;;;5019371;28;20087;-67
2022/07/04 05:54:44;;;;;;;0.70;0.70;;;24.20;47.20;23.30;101636.00;;;;5045747;28;20490;-67
2022/07/04 05:57:30;;;;;;;0.90;0.80;;;24.20;47.30;23.30;101630.00;;;;5037662;28;20041;-67
2022/07/04 06:00:16;;;;;;;0.95;0.73;;;24.20;47.30;23.30;101624.00;;;;5021875;28;20506;-67
2022/07/04 06:03:02;;;;;;;3.30;1.08;;;24.20;47.40;23.30;101619.00;;;;5023923;28;20652;-68
2022/07/04 06:05:49;;;;;;;1.75;0.90;;;24.20;47.40;23.30;101620.00;;;;5018480;28;20034;-67
2022/07/04 06:08:35;;;;;;;1.52;0.80;;;24.20;47.40;23.30;101619.00;;;;5026211;28;20067;-67
2022/07/04 06:11:21;;;;;;;1.48;1.02;;;24.20;47.40;23.30;101620.00;;;;5022230;28;20786;-67
2022/07/04 06:14:07;;;;;;;1.75;0.80;;;24.20;47.40;23.30;101624.00;;;;5020797;28;20430;-67
2022/07/04 06:16:53;;;;;;;1.30;0.70;;;24.20;47.40;23.30;101631.00;;;;5020895;28;20065;-67
2022/07/04 06:19:40;;;;;;;1.70;0.70;;;24.20;47.40;23.30;101630.00;;;;5022669;28;20065;-67
2022/07/04 06:22:26;;;;;;;4.25;1.30;;;24.20;47.40;23.30;101626.00;;;;5018250;28;20042;-67
2022/07/04 06:25:13;;;;;;;3.00;0.93;;;24.20;47.40;23.30;101624.00;;;;5023029;28;20029;-67
2022/07/04 06:28:00;;;;;;;2.13;0.80;;;24.20;47.40;23.30;101624.00;;;;5019401;28;20103;-67
2022/07/04 06:30:46;;;;;;;2.08;1.45;;;24.20;47.40;23.30;101632.00;;;;5019017;28;20124;-67
2022/07/04 06:33:32;;;;;;;1.60;1.10;;;24.20;47.40;23.30;101631.00;;;;5014158;28;20625;-67
2022/07/04 06:36:18;;;;;;;1.40;0.93;;;24.20;47.40;23.30;101628.00;;;;5019442;28;20052;-68
2022/07/04 06:39:04;;;;;;;1.90;0.82;;;24.20;47.50;23.30;101635.00;;;;5018740;28;20480;-67
2022/07/04 06:41:50;;;;;;;1.00;0.90;;;24.20;47.40;23.30;101630.00;;;;5018354;28;20041;-67
2022/07/04 06:44:36;;;;;;;2.13;0.80;;;24.30;47.50;23.30;101632.00;;;;5025510;28;20682;-67
2022/07/04 06:47:22;;;;;;;1.60;0.85;;;24.30;47.40;23.30;101631.00;;;;5026045;28;20037;-67
2022/07/04 06:50:09;;;;;;;2.80;1.30;;;24.30;47.40;23.30;101633.00;;;;5024971;28;20541;-67
2022/07/04 06:52:55;;;;;;;1.40;0.88;;;24.30;47.30;23.30;101635.00;;;;5040902;28;20048;-67
2022/07/04 06:55:42;;;;;;;3.10;1.00;;;24.40;47.30;23.30;101646.00;;;;5021877;28;20037;-67
2022/07/04 06:58:28;;;;;;;1.55;0.75;;;24.30;47.20;23.40;101638.00;;;;5023295;28;20045;-67
2022/07/04 07:01:16;;;;;;;2.63;0.90;;;24.30;47.30;23.30;101630.00;;;;5022239;28;20462;-66
2022/07/04 07:04:05;;;;;;;1.98;1.25;;;24.30;47.20;23.30;101633.00;;;;5007338;28;20038;-67
2022/07/04 07:06:51;;;;;;;2.28;0.80;;;24.30;47.20;23.40;101642.00;;;;5018637;28;20038;-67
2022/07/04 07:09:37;;;;;;;1.65;0.80;;;24.30;47.20;23.30;101636.00;;;;5022874;28;20494;-67
2022/07/04 07:12:23;;;;;;;2.50;0.80;;;24.40;47.20;23.30;101625.00;;;;5032214;28;20091;-67
2022/07/04 07:15:10;;;;;;;1.42;0.65;;;24.30;47.10;23.30;101634.00;;;;5023316;28;20037;-68
2022/07/04 07:17:56;;;;;;;1.88;1.23;;;24.30;47.00;23.40;101633.00;;;;5032424;28;20051;-67
2022/07/04 07:20:42;;;;;;;2.17;0.80;;;24.30;47.00;23.30;101632.00;;;;5020579;28;20044;-68
2022/07/04 07:23:28;;;;;;;2.42;0.65;;;24.30;47.00;23.30;101635.00;;;;5025178;28;20049;-67
2022/07/04 07:26:14;;;;;;;2.78;0.90;;;24.30;46.90;23.40;101641.00;;;;5027491;28;20123;-67
2022/07/04 07:29:00;;;;;;;2.03;0.88;;;24.30;47.00;23.30;101638.00;;;;5028208;28;20585;-68
2022/07/04 07:31:46;;;;;;;2.08;0.90;;;24.30;47.00;23.40;101636.00;;;;5028205;28;20045;-67
2022/07/04 07:34:32;;;;;;;2.88;0.80;;;24.30;46.90;23.40;101636.00;;;;5024145;28;20565;-68
2022/07/04 07:37:20;;;;;;;3.45;0.90;;;24.40;46.90;23.40;101641.00;;;;5021882;28;20037;-68
2022/07/04 07:40:07;;;;;;;2.35;0.60;;;24.40;46.80;23.40;101642.00;;;;5029268;28;20057;-67
2022/07/04 07:42:54;;;;;;;1.30;0.70;;;24.40;46.70;23.40;101633.00;;;;5023946;28;20042;-68
2022/07/04 07:45:40;;;;;;;1.33;0.68;;;24.40;46.70;23.40;101631.00;;;;5027448;28;20252;-68
2022/07/04 07:48:27;;;;;;;1.15;0.60;;;24.40;46.70;23.40;101629.00;;;;5025747;28;20297;-68
2022/07/04 07:51:15;;;;;;;1.13;0.70;;;24.40;46.50;23.30;101626.00;;;;5024314;28;20041;-68
2022/07/04 07:54:01;;;;;;;;;;;24.40;46.50;23.30;101624.00;;;;5024685;28;20053;-68
2022/07/04 07:56:47;;;;;;;3.35;0.80;;;24.40;46.70;23.30;101620.00;;;;5023867;28;19928;-68
2022/07/04 07:59:33;;;;;;;2.70;0.80;;;24.40;46.50;23.30;101621.00;;;;5023181;28;20046;-68
2022/07/04 08:02:19;;;;;;;1.13;0.60;;;24.40;46.30;23.30;101617.00;;;;5025921;28;20056;-68
2022/07/04 08:05:05;;;;;;;1.42;0.73;;;24.30;46.30;23.30;101615.00;;;;5023233;28;20041;-68
2022/07/04 08:07:51;;;;;;;1.30;0.65;;;24.40;46.30;23.30;101602.00;;;;5024972;28;20090;-68
2022/07/04 08:10:37;;;;;;;0.95;0.60;;;24.30;46.30;23.30;101598.00;;;;5024471;28;20038;-68
2022/07/04 08:13:23;;;;;;;0.93;0.40;;;24.40;46.30;23.30;101600.00;;;;5023990;28;20095;-68
2022/07/04 08:16:10;;;;;;;0.90;0.43;;;24.30;46.20;23.40;101601.00;;;;5032799;28;20059;-68
2022/07/04 08:18:56;;;;;;;1.25;0.55;;;24.30;46.20;23.40;101601.00;;;;5038488;28;20482;-68
2022/07/04 08:21:42;;;;;;;2.72;0.57;;;24.30;46.20;23.40;101596.00;;;;5027921;28;20041;-68
2022/07/04 08:24:28;;;;;;;1.50;0.45;;;24.40;46.10;23.40;101597.00;;;;5020186;28;20060;-68
2022/07/04 08:27:14;;;;;;;2.58;0.82;;;24.40;46.10;23.40;101599.00;;;;5030422;28;20037;-68
2022/07/04 08:30:00;;;;;;;0.80;0.70;;;24.30;46.20;23.40;101612.00;;;;5020364;28;20045;-68
2022/07/04 08:32:46;;;;;;;2.53;0.63;;;24.40;46.30;23.40;101602.00;;;;5025444;28;20412;-67
2022/07/04 08:35:33;;;;;;;2.38;0.50;;;24.40;46.10;23.40;101604.00;;;;5021839;28;20047;-68
2022/07/04 08:38:20;;;;;;;2.07;0.50;;;24.40;45.90;23.40;101608.00;;;;5020407;28;20110;-68
2022/07/04 08:41:06;;;;;;;2.92;0.70;;;24.40;46.00;23.40;101602.00;;;;5021727;28;20079;-67
2022/07/04 08:43:52;;;;;;;0.95;0.40;;;24.40;46.10;23.40;101608.00;;;;5021749;28;20034;-68
2022/07/04 08:46:39;;;;;;;2.50;0.50;;;24.40;45.90;23.40;101616.00;;;;5025915;28;20045;-67
2022/07/04 08:49:30;;;;;;;0.60;0.50;;;24.40;45.90;23.40;101603.00;;;;5023119;28;20033;-67
2022/07/04 08:52:16;;;;;;;2.22;0.43;;;24.40;46.20;23.40;101612.00;;;;5019852;28;20049;-68
2022/07/04 08:58:26;;;;;;;1.90;0.47;;;24.40;45.50;23.40;101603.00;;;;5022044;28;20133;-68
2022/07/04 09:01:15;;;;;;;1.92;0.32;;;24.40;45.70;23.40;101601.00;;;;5021521;28;20040;-68
2022/07/04 09:04:01;;;;;;;1.42;0.65;;;24.40;45.60;23.40;101603.00;;;;5006729;28;20048;-67
2022/07/04 09:06:47;;;;;;;1.25;0.50;;;24.40;45.60;23.40;101595.00;;;;5025440;28;20406;-67
2022/07/04 09:09:33;;;;;;;1.30;0.70;;;24.40;45.60;23.40;101593.00;;;;5023574;28;20041;-67
2022/07/04 09:12:20;;;;;;;0.55;0.20;;;24.40;45.90;23.40;101602.00;;;;5024376;28;20494;-68
2022/07/04 09:15:06;;;;;;;0.52;0.38;;;24.30;45.50;23.40;101602.00;;;;5022706;28;20499;-67
2022/07/04 09:17:52;;;;;;;0.80;0.30;;;24.40;45.30;23.40;101603.00;;;;5022554;28;20046;-67
2022/07/04 09:20:38;;;;;;;2.10;0.38;;;24.40;45.60;23.40;101615.00;;;;5022599;28;20029;-67
2022/07/04 09:23:30;;;;;;;2.05;0.50;;;24.50;45.20;23.40;101621.00;;;;5015737;28;20037;-67
2022/07/04 09:26:19;;;;;;;1.70;0.40;;;24.50;45.20;23.40;101616.00;;;;5026914;28;20437;-67
2022/07/04 09:29:05;;;;;;;0.47;0.38;;;24.50;46.10;23.40;101613.00;;;;5010682;28;20041;-67
2022/07/04 09:31:51;;;;;;;0.73;0.60;;;24.50;45.30;23.40;101606.00;;;;5023268;28;20553;-67
2022/07/04 09:34:39;;;;;;;1.33;0.40;;;24.40;45.10;23.40;101605.00;;;;5020257;28;20041;-67
2022/07/04 09:37:57;;;;;;;1.10;0.38;;;24.40;45.00;23.40;101613.00;;;;5019741;28;20041;-67
2022/07/04 09:44:20;;;;;;;1.48;0.30;;;24.50;45.00;23.40;101607.00;;;;5020845;28;20505;-67
2022/07/04 09:47:27;;;;;;;1.55;0.55;;;24.40;45.00;23.40;101609.00;;;;5014723;28;20592;-68
2022/07/04 09:50:18;;;;;;;1.30;0.40;;;24.50;45.00;23.40;101600.00;;;;5008712;28;20047;-67
2022/07/04 09:53:05;;;;;;;0.40;0.32;;;24.50;44.90;23.40;101606.00;;;;5020327;28;20479;-67
2022/07/04 09:55:51;;;;;;;0.65;0.30;;;24.40;44.90;23.40;101598.00;;;;5021597;28;20041;-67
2022/07/04 09:58:37;;;;;;;0.65;0.30;;;24.50;44.80;23.40;101599.00;;;;5022498;28;20052;-67
2022/07/04 10:01:23;;;;;;;2.25;0.40;;;24.50;44.80;23.40;101598.00;;;;5027484;28;20033;-67
2022/07/04 10:04:11;;;;;;;0.90;0.32;;;24.50;44.80;23.40;101604.00;;;;5018493;28;20045;-67
2022/07/04 10:06:57;;;;;;;;;;;24.50;45.00;23.40;101584.00;;;;5019180;28;20084;-67
2022/07/04 10:09:43;;;;;;;2.33;0.30;;;24.50;45.20;23.40;101595.00;;;;5025573;28;19929;-78
2022/07/04 10:12:29;;;;;;;1.33;0.40;;;24.60;45.00;23.40;101592.00;;;;5021068;28;20638;-67
2022/07/04 10:15:16;;;;;;;0.75;0.30;;;24.60;44.70;23.40;101597.00;;;;5025235;28;20612;-66
2022/07/04 10:18:02;;;;;;;1.45;0.45;;;24.60;44.70;23.40;101594.00;;;;5026964;28;20053;-66
2022/07/04 10:20:49;;;;;;;2.92;0.38;;;24.60;44.80;23.40;101595.00;;;;5021871;28;20129;-66
2022/07/04 10:23:35;;;;;;;1.73;0.30;;;24.60;44.60;23.40;101585.00;;;;5015806;28;20443;-66
2022/07/04 10:26:22;;;;;;;1.67;0.40;;;24.50;44.50;23.50;101577.00;;;;5024688;28;20104;-66
2022/07/04 10:29:11;;;;;;;0.52;0.35;;;24.50;44.50;23.40;101582.00;;;;5023491;28;20095;-66
2022/07/04 10:31:57;;;;;;;1.08;0.50;;;24.50;44.40;23.40;101581.00;;;;5009966;28;20049;-65
2022/07/04 10:34:43;;;;;;;1.73;0.50;;;24.60;44.50;23.50;101588.00;;;;5037077;28;20041;-65
2022/07/04 10:38:04;;;;;;;1.30;0.40;;;24.50;44.50;23.40;101583.00;;;;5023683;28;20064;-64
2022/07/04 10:40:56;;;;;;;4.38;0.95;;;24.60;44.40;23.40;101571.00;;;;5030517;28;20371;-64
2022/07/04 10:43:48;;;;;;;3.95;0.50;;;24.50;44.40;23.40;101569.00;;;;5021329;28;20175;-64
2022/07/04 10:46:36;;;;;;;1.30;0.30;;;24.60;44.30;23.40;101575.00;;;;5024438;28;20402;-65
2022/07/04 10:49:26;;;;;;;2.78;0.60;;;24.60;44.30;23.50;101573.00;;;;5022395;28;20050;-65
2022/07/04 10:52:13;;;;;;;1.33;0.50;;;24.60;44.20;23.50;101563.00;;;;5024989;28;20045;-65
2022/07/04 10:55:00;;;;;;;0.85;0.55;;;24.50;44.20;23.50;101563.00;;;;5027619;28;20037;-65
2022/07/04 10:57:46;;;;;;;2.35;0.75;;;24.60;44.20;23.50;101573.00;;;;5018534;28;20410;-65
2022/07/04 11:00:32;;;;;;;2.25;1.08;;;24.60;44.30;23.50;101557.00;;;;5019141;28;20044;-65
2022/07/04 11:03:19;;;;;;;1.83;0.60;;;24.60;44.40;23.50;101553.00;;;;5005558;28;20046;-65
2022/07/04 11:06:05;;;;;;;2.08;0.60;;;24.50;44.30;23.50;101560.00;;;;4999275;28;20163;-65
2022/07/04 11:09:19;;;;;;;2.78;0.40;;;24.60;44.30;23.50;101566.00;;;;5024554;28;20661;-65
2022/07/04 11:12:06;;;;;;;0.75;0.50;;;24.60;44.20;23.50;101558.00;;;;5026217;28;20411;-65
2022/07/04 11:14:52;;;;;;;1.58;0.50;;;24.60;44.40;23.50;101566.00;;;;5020611;28;20502;-65
2022/07/04 11:17:38;;;;;;;2.05;0.50;;;24.60;44.40;23.50;101556.00;;;;5024031;28;20258;-65
2022/07/04 11:20:25;;;;;;;1.13;0.50;;;24.60;44.40;23.50;101557.00;;;;5023144;28;20471;-65
2022/07/04 11:23:16;;;;;;;0.93;0.35;;;24.60;44.40;23.50;101561.00;;;;5023198;28;20053;-68
2022/07/04 11:26:02;;;;;;;1.75;0.43;;;24.60;44.40;23.50;101556.00;;;;5028780;28;20038;-72
2022/07/04 11:28:49;;;;;;;1.20;0.50;;;24.60;44.30;23.50;101550.00;;;;5025723;28;20041;-66
2022/07/04 11:31:40;;;;;;;0.63;0.47;;;24.60;44.30;23.50;101556.00;;;;5029131;28;20034;-67
2022/07/04 11:34:31;;;;;;;2.83;0.50;;;24.60;44.30;23.50;101556.00;;;;5021665;28;20040;-66
2022/07/04 11:37:17;;;;;;;1.38;0.50;;;24.60;44.40;23.50;101556.00;;;;5020799;28;20499;-66
2022/07/04 11:46:13;;;;;;;1.20;0.70;;;24.70;45.30;23.60;101539.00;;;;5027280;28;20041;-66
2022/07/04 11:49:12;;;;;;;2.15;0.50;;;24.60;44.50;23.60;101527.00;;;;5028646;28;20073;-66
2022/07/04 11:51:58;;;;;;;1.08;0.60;;;24.70;44.60;23.60;101530.00;;;;5025450;28;20056;-66
2022/07/04 11:54:46;;;;;;;1.52;0.60;;;24.70;44.60;23.60;101519.00;;;;5020945;28;20042;-67
2022/07/04 11:57:43;;;;;;;3.67;1.02;;;24.70;44.60;23.60;101525.00;;;;5023599;28;20554;-66
2022/07/04 12:00:34;;;;;;;1.75;0.50;;;24.70;44.50;23.60;101526.00;;;;5036353;28;20038;-67
2022/07/04 12:03:20;;;;;;;0.90;0.60;;;24.70;44.60;23.60;101528.00;;;;5020040;28;20475;-66
2022/07/04 12:06:06;;;;;;;2.40;0.80;;;24.60;44.50;23.60;101521.00;;;;5024233;28;20045;-66
2022/07/04 12:08:53;;;;;;;1.95;0.60;;;24.60;44.50;23.60;101511.00;;;;5021838;28;20041;-66
2022/07/04 12:11:55;;;;;;;1.20;0.60;;;24.70;44.70;23.60;101527.00;;;;5025878;28;20531;-66
2022/07/04 12:15:07;;;;;;;0.70;0.40;;;24.70;44.60;23.60;101518.00;;;;5026521;28;20108;-66
2022/07/04 12:17:54;;;;;;;1.45;0.60;;;24.80;44.60;23.60;101517.00;;;;5012980;28;20404;-66
2022/07/04 12:20:40;;;;;;;1.23;0.47;;;24.70;44.50;23.60;101518.00;;;;5022247;28;20045;-66
2022/07/04 12:23:28;;;;;;;3.53;0.70;;;24.80;44.50;23.60;101515.00;;;;5022012;28;20041;-67
2022/07/04 12:26:14;;;;;;;2.80;0.50;;;24.70;44.40;23.60;101524.00;;;;5028171;28;20043;-66
2022/07/04 12:29:00;;;;;;;1.55;0.60;;;24.80;44.40;23.60;101509.00;;;;5039820;28;20053;-66
2022/07/04 12:31:49;;;;;;;2.25;0.70;;;24.70;44.60;23.60;101520.00;;;;4999601;28;20099;-66
2022/07/04 12:34:36;;;;;;;2.78;0.77;;;24.70;44.30;23.70;101513.00;;;;5024643;28;20045;-66
2022/07/04 12:37:22;;;;;;;2.65;0.60;;;24.70;44.30;23.70;101517.00;;;;5026590;28;20052;-66